To NAV CANADA Home Page Login to a new session Search on AWWS site Disclaimer Vers la page française équivalente Tips FAQ What's new on the site To the Forecasts and Observations / NOTAM section To "File a Flight Plan" website Publications and other links Update of the User's profile FIC Telephone Numbers My Weather Data Folder Route Weather Data Regional Weather Data Local Weather Data To the Forecasts and Observations / NOTAM section
Request Generated 11/13/2018 at 18:04:44 UTC . Weather information available at that time is displayed.

METAR/TAF

RANKIN INLET/NU    

METAR CYRT 131800Z 36016KT 2SM IC BLSN SKC M27/M31 A3013 RMK BLSN2 SLP211=
METAR CYRT 131700Z 35016KT 2SM IC BLSN SKC M28/M31 A3013 RMK BLSN2 SLP210=
METAR CYRT 131600Z 35017KT 2SM IC BLSN SKC M28/M32 A3013 RMK BLSN2 SLP210=

TAF CYRT 131738Z 1318/1406 34025KT 2SM IC BLSN FEW006 TEMPO 1318/1406
3SM IC BLSN PROB30 1318/1406 3/4SM BLSN BKN006
RMK NXT FCST BY 140000Z=
Your time UTC time
Weather data provided by Environment Canada and NAV CANADA